createdAt,value
2022-12-14T00:01:34.859Z,7.00
2022-12-14T00:04:01.548Z,5.00
2022-12-14T00:06:31.015Z,6.38
2022-12-14T00:08:59.969Z,5.78
2022-12-14T00:11:27.893Z,6.63
2022-12-14T00:13:59.694Z,6.60
2022-12-14T00:16:30.971Z,3.95
2022-12-14T00:18:59.879Z,7.25
2022-12-14T00:21:27.466Z,7.10
2022-12-14T00:23:54.939Z,7.63
2022-12-14T00:26:24.866Z,7.00
2022-12-14T00:28:53.432Z,8.30
2022-12-14T00:31:21.461Z,8.13
2022-12-14T00:33:48.733Z,7.10
2022-12-14T00:36:15.424Z,7.20
2022-12-14T00:38:42.817Z,7.75
2022-12-14T00:41:10.769Z,8.20
2022-12-14T00:43:38.176Z,7.30
2022-12-14T00:46:04.964Z,5.75
2022-12-14T00:48:32.349Z,7.13
2022-12-14T00:50:59.436Z,6.95
2022-12-14T00:53:26.484Z,5.97
2022-12-14T00:55:53.294Z,7.47
2022-12-14T00:58:23.052Z,9.32
2022-12-14T01:01:01.908Z,8.07
2022-12-14T01:03:29.109Z,6.78
2022-12-14T01:05:56.454Z,8.55
2022-12-14T01:08:23.683Z,7.88
2022-12-14T01:10:50.990Z,5.55
2022-12-14T01:13:18.081Z,8.20
2022-12-14T01:15:44.882Z,8.65
2022-12-14T01:18:11.674Z,7.70
2022-12-14T01:20:38.296Z,7.32
2022-12-14T01:23:04.958Z,6.95
2022-12-14T01:25:31.705Z,7.80
2022-12-14T01:27:58.385Z,7.65
2022-12-14T01:30:25.090Z,8.77
2022-12-14T01:32:51.766Z,7.68
2022-12-14T01:35:18.460Z,6.57
2022-12-14T01:37:45.172Z,7.50
2022-12-14T01:40:15.668Z,8.30
2022-12-14T01:42:42.330Z,6.63
2022-12-14T01:45:22.288Z,8.88
2022-12-14T01:47:55.974Z,8.27
2022-12-14T01:50:26.326Z,8.10
2022-12-14T01:52:57.790Z,8.07
2022-12-14T01:55:34.373Z,7.80
2022-12-14T01:58:15.387Z,9.43
2022-12-14T02:00:43.668Z,8.77
2022-12-14T02:03:15.026Z,7.45
2022-12-14T02:05:50.662Z,8.75
2022-12-14T02:08:19.406Z,8.88
2022-12-14T02:10:47.370Z,6.93
2022-12-14T02:13:25.905Z,9.90
2022-12-14T02:15:53.297Z,9.35
2022-12-14T02:18:26.284Z,9.75
2022-12-14T02:21:14.418Z,9.07
2022-12-14T02:23:53.507Z,8.35
2022-12-14T02:26:52.192Z,9.23
2022-12-14T02:29:46.050Z,9.25
2022-12-14T02:32:33.958Z,5.32
2022-12-14T02:35:37.708Z,9.80
2022-12-14T02:38:25.800Z,7.57
2022-12-14T02:41:27.570Z,9.10
2022-12-14T02:44:06.713Z,7.32
2022-12-14T02:46:50.657Z,8.93
2022-12-14T02:49:42.399Z,9.55
2022-12-14T02:52:31.656Z,7.63
2022-12-14T02:55:05.496Z,9.63
2022-12-14T02:57:50.214Z,10.48
2022-12-14T03:00:17.032Z,8.48
2022-12-14T03:02:45.604Z,8.82
2022-12-14T03:05:12.647Z,9.25
2022-12-14T03:07:48.624Z,9.30
2022-12-14T03:10:34.222Z,8.73
2022-12-14T03:13:34.736Z,9.13
2022-12-14T03:16:08.055Z,5.28
2022-12-14T03:18:42.887Z,9.15
2022-12-14T03:21:13.641Z,8.52
2022-12-14T03:23:43.714Z,9.85
2022-12-14T03:26:26.471Z,8.90
2022-12-14T03:28:56.659Z,6.88
2022-12-14T03:31:40.003Z,9.50
2022-12-14T03:34:13.154Z,8.60
2022-12-14T03:36:59.294Z,9.40
2022-12-14T03:39:32.095Z,9.10
2022-12-14T03:42:26.531Z,10.48
2022-12-14T03:45:30.481Z,9.77
2022-12-14T03:48:35.141Z,9.02
2022-12-14T03:51:18.437Z,9.90
2022-12-14T03:54:21.237Z,8.27
2022-12-14T03:56:53.214Z,10.65
2022-12-14T03:59:48.673Z,8.10
2022-12-14T04:02:26.276Z,10.00
2022-12-14T04:05:06.093Z,9.88
2022-12-14T04:07:46.521Z,10.15
2022-12-14T04:13:27.321Z,7.18
2022-12-14T04:16:14.639Z,9.10
2022-12-14T04:19:00.626Z,6.93
2022-12-14T04:21:43.058Z,11.07
2022-12-14T04:24:41.461Z,9.80
2022-12-14T04:27:20.531Z,7.57
2022-12-14T04:29:56.775Z,10.27
2022-12-14T04:32:41.706Z,9.73
2022-12-14T04:35:39.790Z,10.35
2022-12-14T04:38:22.181Z,9.32
2022-12-14T04:41:11.591Z,8.60
2022-12-14T04:43:43.875Z,10.40
2022-12-14T04:46:41.104Z,9.93
2022-12-14T04:49:12.630Z,7.03
2022-12-14T04:52:05.439Z,8.93
2022-12-14T04:54:40.290Z,10.65
2022-12-14T04:57:12.249Z,10.13
2022-12-14T04:59:43.858Z,10.38
2022-12-14T05:02:40.889Z,10.90
2022-12-14T05:05:25.646Z,6.90
2022-12-14T05:08:14.213Z,10.02
2022-12-14T05:10:44.920Z,10.55
2022-12-14T05:13:24.723Z,11.45
2022-12-14T05:15:55.399Z,7.03
2022-12-14T05:18:23.225Z,11.15
2022-12-14T05:20:50.669Z,10.55
2022-12-14T05:23:17.609Z,11.38
2022-12-14T05:25:44.406Z,9.73
2022-12-14T05:28:15.916Z,11.83
2022-12-14T05:30:42.732Z,9.20
2022-12-14T05:33:19.894Z,8.70
2022-12-14T05:35:46.877Z,10.18
2022-12-14T05:38:13.550Z,8.40
2022-12-14T05:40:40.275Z,9.27
2022-12-14T05:43:08.864Z,9.73
2022-12-14T05:45:35.506Z,11.48
2022-12-14T05:48:02.400Z,10.32
2022-12-14T05:50:29.034Z,11.80
2022-12-14T05:52:55.985Z,11.60
2022-12-14T05:55:22.742Z,9.88
2022-12-14T05:57:49.392Z,11.23
2022-12-14T06:00:16.186Z,11.45
2022-12-14T06:02:43.019Z,10.45
2022-12-14T06:05:09.754Z,11.82
2022-12-14T06:07:36.392Z,11.30
2022-12-14T06:10:03.260Z,12.15
2022-12-14T06:12:30.561Z,11.18
2022-12-14T06:14:57.189Z,11.30
2022-12-14T06:17:23.872Z,10.73
2022-12-14T06:19:50.669Z,11.05
2022-12-14T06:22:17.968Z,11.07
2022-12-14T06:24:44.630Z,10.93
2022-12-14T06:27:11.269Z,11.30
2022-12-14T06:29:37.963Z,12.00
2022-12-14T06:32:04.843Z,11.80
2022-12-14T06:34:35.388Z,12.13
2022-12-14T06:37:06.296Z,13.85
2022-12-14T06:39:33.199Z,11.65
2022-12-14T06:41:59.853Z,12.50
2022-12-14T06:44:26.622Z,12.25
2022-12-14T06:46:53.357Z,12.18
2022-12-14T06:49:20.118Z,11.23
2022-12-14T06:51:46.799Z,13.10
2022-12-14T06:54:15.150Z,12.43
2022-12-14T06:56:43.596Z,11.73
2022-12-14T06:59:10.710Z,12.27
2022-12-14T07:01:38.547Z,12.48
2022-12-14T07:04:06.375Z,12.77
2022-12-14T07:06:36.727Z,13.55
2022-12-14T07:09:04.969Z,11.45
2022-12-14T07:11:32.050Z,10.02
2022-12-14T07:14:05.986Z,13.90
2022-12-14T07:16:34.902Z,13.90
2022-12-14T07:19:01.656Z,13.00
2022-12-14T07:21:28.325Z,12.18
2022-12-14T07:23:55.183Z,11.88
2022-12-14T07:26:27.618Z,12.38
2022-12-14T07:31:25.938Z,12.70
2022-12-14T07:33:54.902Z,13.02
2022-12-14T07:36:22.961Z,12.80
2022-12-14T07:38:50.852Z,12.20
2022-12-14T07:41:24.083Z,12.57
2022-12-14T07:43:51.917Z,14.20
2022-12-14T07:46:21.496Z,11.85
2022-12-14T07:48:50.668Z,12.95
2022-12-14T07:51:19.652Z,12.68
2022-12-14T07:53:46.394Z,12.43
2022-12-14T07:56:19.527Z,11.40
2022-12-14T07:58:46.479Z,12.23
2022-12-14T08:01:19.366Z,10.50
2022-12-14T08:03:57.854Z,11.88
2022-12-14T08:06:26.734Z,12.55
2022-12-14T08:08:54.299Z,13.80
2022-12-14T08:11:22.359Z,11.23
2022-12-14T08:14:07.026Z,13.35
2022-12-14T08:16:33.936Z,11.57
2022-12-14T08:19:01.333Z,12.02
2022-12-14T08:21:28.319Z,11.38
2022-12-14T08:23:57.186Z,12.75
2022-12-14T08:26:30.141Z,13.63
2022-12-14T08:29:00.123Z,13.13
2022-12-14T08:31:28.360Z,14.20
2022-12-14T08:33:55.525Z,11.95
2022-12-14T08:36:28.029Z,12.38
2022-12-14T08:38:56.597Z,12.77
2022-12-14T08:41:24.966Z,13.82
2022-12-14T08:43:56.701Z,13.10
2022-12-14T08:46:24.766Z,14.38
2022-12-14T08:48:53.352Z,14.82
2022-12-14T08:51:20.906Z,13.80
2022-12-14T08:53:48.127Z,13.57
2022-12-14T08:56:18.672Z,14.13
2022-12-14T08:58:45.509Z,12.18
2022-12-14T09:01:16.016Z,13.45
2022-12-14T09:03:44.720Z,13.25
2022-12-14T09:06:15.372Z,13.90
2022-12-14T09:08:42.397Z,13.45
2022-12-14T09:11:12.918Z,9.48
2022-12-14T09:13:40.236Z,12.10
2022-12-14T09:16:10.927Z,13.15
2022-12-14T09:18:37.826Z,11.00
2022-12-14T09:21:04.714Z,12.00
2022-12-14T09:23:33.500Z,12.48
2022-12-14T09:26:07.136Z,12.13
2022-12-14T09:28:36.690Z,12.70
2022-12-14T09:31:06.900Z,13.80
2022-12-14T09:33:34.403Z,12.02
2022-12-14T09:36:08.380Z,13.35
2022-12-14T09:38:36.655Z,13.70
2022-12-14T09:41:07.924Z,9.38
2022-12-14T09:43:43.575Z,12.80
2022-12-14T09:46:24.390Z,12.48
2022-12-14T09:48:52.696Z,12.02
2022-12-14T09:51:22.670Z,14.30
2022-12-14T09:54:02.165Z,14.07
2022-12-14T09:56:29.419Z,12.20
2022-12-14T09:58:58.551Z,11.40
2022-12-14T10:01:55.541Z,13.18
2022-12-14T10:04:47.843Z,11.68
2022-12-14T10:07:34.808Z,13.10
2022-12-14T10:10:13.838Z,11.70
2022-12-14T10:12:40.450Z,14.57
2022-12-14T10:15:44.777Z,14.50
2022-12-14T10:21:33.275Z,11.68
2022-12-14T10:24:04.725Z,12.70
2022-12-14T10:26:53.779Z,12.52
2022-12-14T10:30:04.677Z,13.35
2022-12-14T10:32:39.565Z,13.45
2022-12-14T10:35:20.614Z,11.60
2022-12-14T10:37:53.650Z,13.23
2022-12-14T10:40:33.668Z,12.65
2022-12-14T10:43:29.958Z,13.77
2022-12-14T10:46:22.395Z,12.30
2022-12-14T10:49:04.258Z,9.88
2022-12-14T10:51:37.726Z,12.52
2022-12-14T10:54:30.537Z,12.30
2022-12-14T10:59:39.783Z,11.00
2022-12-14T11:02:17.006Z,9.05
2022-12-14T11:05:00.512Z,12.38
2022-12-14T11:07:39.396Z,12.13
2022-12-14T11:10:22.872Z,13.15
2022-12-14T11:12:55.536Z,11.55
2022-12-14T11:15:38.119Z,12.23
2022-12-14T11:20:34.406Z,10.70
2022-12-14T11:23:17.680Z,12.00
2022-12-14T11:25:50.806Z,11.55
2022-12-14T11:28:39.807Z,13.55
2022-12-14T11:31:27.902Z,10.38
2022-12-14T11:33:57.005Z,12.93
2022-12-14T11:36:38.562Z,12.77
2022-12-14T11:39:14.270Z,12.27
2022-12-14T11:41:47.323Z,12.32
2022-12-14T11:44:17.078Z,12.88
2022-12-14T11:46:58.029Z,13.10
2022-12-14T11:49:37.733Z,12.32
2022-12-14T11:52:04.350Z,12.35
2022-12-14T11:54:39.130Z,11.93
2022-12-14T11:57:10.513Z,14.10
2022-12-14T11:59:42.740Z,13.18
2022-12-14T12:02:16.992Z,13.73
2022-12-14T12:04:47.741Z,15.07
2022-12-14T12:10:14.735Z,12.98
2022-12-14T12:13:01.024Z,13.00
2022-12-14T12:15:41.059Z,11.73
2022-12-14T12:18:35.713Z,12.93
2022-12-14T12:21:02.272Z,12.77
2022-12-14T12:23:36.197Z,12.27
2022-12-14T12:26:13.001Z,12.52
2022-12-14T12:28:43.788Z,13.02
2022-12-14T12:31:19.401Z,12.65
2022-12-14T12:34:17.179Z,15.20
2022-12-14T12:37:17.092Z,14.68
2022-12-14T12:39:35.636Z,14.18
2022-12-14T12:42:20.686Z,14.45
2022-12-14T12:45:21.623Z,11.77
2022-12-14T12:47:54.797Z,13.52
2022-12-14T12:50:26.236Z,13.50
2022-12-14T12:52:57.809Z,13.85
2022-12-14T12:55:30.867Z,13.88
2022-12-14T12:58:01.695Z,12.98
2022-12-14T13:00:30.575Z,13.45
2022-12-14T13:03:25.106Z,13.75
2022-12-14T13:05:55.505Z,13.50
2022-12-14T13:08:37.262Z,15.43
2022-12-14T13:11:26.254Z,13.47
2022-12-14T13:14:02.789Z,12.82
2022-12-14T13:16:35.036Z,13.93
2022-12-14T13:19:51.716Z,13.65
2022-12-14T13:22:31.952Z,14.63
2022-12-14T13:25:06.584Z,14.57
2022-12-14T13:28:05.799Z,14.77
2022-12-14T13:30:43.331Z,14.13
2022-12-14T13:33:51.189Z,14.57
2022-12-14T13:36:36.962Z,12.65
2022-12-14T13:39:26.832Z,13.57
2022-12-14T13:41:59.594Z,16.23
2022-12-14T13:45:08.473Z,14.82
2022-12-14T13:47:45.963Z,14.73
2022-12-14T13:50:39.827Z,15.20
2022-12-14T13:53:31.570Z,14.85
2022-12-14T13:56:00.571Z,16.48
2022-12-14T13:58:44.570Z,14.75
2022-12-14T14:01:35.729Z,15.98
2022-12-14T14:04:11.550Z,16.20
2022-12-14T14:06:45.641Z,16.83
2022-12-14T14:09:31.365Z,16.23
2022-12-14T14:12:25.888Z,16.50
2022-12-14T14:15:00.458Z,16.33
2022-12-14T14:17:46.666Z,18.15
2022-12-14T14:20:31.746Z,16.90
2022-12-14T14:23:14.264Z,17.58
2022-12-14T14:25:46.711Z,17.83
2022-12-14T14:28:29.667Z,14.27
2022-12-14T14:30:58.631Z,17.20
2022-12-14T14:33:47.684Z,16.70
2022-12-14T14:36:33.271Z,15.82
2022-12-14T14:39:02.410Z,15.70
2022-12-14T14:41:36.577Z,15.88
2022-12-14T14:44:18.527Z,17.30
2022-12-14T14:46:49.784Z,16.20
2022-12-14T14:49:26.179Z,16.08
2022-12-14T14:51:52.959Z,15.40
2022-12-14T14:57:33.381Z,18.05
2022-12-14T15:00:06.428Z,20.30
2022-12-14T15:02:42.168Z,19.27
2022-12-14T15:08:34.506Z,18.73
2022-12-14T15:11:05.357Z,16.45
2022-12-14T15:13:57.705Z,17.48
2022-12-14T15:16:41.828Z,18.67
2022-12-14T15:19:27.889Z,17.17
2022-12-14T15:21:58.386Z,17.25
2022-12-14T15:24:26.124Z,15.80
2022-12-14T15:26:53.777Z,16.35
2022-12-14T15:29:28.275Z,17.33
2022-12-14T15:31:59.967Z,19.13
2022-12-14T15:34:27.659Z,17.00
2022-12-14T15:36:55.258Z,17.95
2022-12-14T15:40:00.433Z,15.88
2022-12-14T15:42:27.774Z,12.30
2022-12-14T15:44:56.269Z,12.35
2022-12-14T15:47:30.773Z,12.43
2022-12-14T15:50:15.945Z,11.70
2022-12-14T15:52:44.446Z,12.20
2022-12-14T15:55:30.953Z,10.70
2022-12-14T15:58:01.061Z,9.15
2022-12-14T16:00:27.876Z,9.40
2022-12-14T16:02:54.990Z,8.75
2022-12-14T16:05:22.558Z,9.32
2022-12-14T16:07:58.553Z,9.02
2022-12-14T16:10:33.019Z,8.70
2022-12-14T16:13:23.198Z,8.18
2022-12-14T16:15:50.702Z,8.05
2022-12-14T16:18:18.559Z,7.82
2022-12-14T16:20:54.705Z,7.80
2022-12-14T16:23:24.072Z,7.55
2022-12-14T16:26:20.765Z,7.32
2022-12-14T16:28:48.037Z,8.20
2022-12-14T16:31:20.477Z,6.78
2022-12-14T16:34:05.375Z,7.75
2022-12-14T16:36:34.635Z,7.55
2022-12-14T16:39:05.749Z,8.00
2022-12-14T16:41:41.569Z,7.95
2022-12-14T16:44:19.808Z,8.07
2022-12-14T16:47:23.996Z,7.53
2022-12-14T16:49:55.177Z,7.80
2022-12-14T16:52:34.317Z,7.50
2022-12-14T16:55:13.248Z,6.70
2022-12-14T16:57:49.192Z,7.35
2022-12-14T17:00:37.765Z,7.53
2022-12-14T17:03:20.217Z,7.38
2022-12-14T17:06:08.710Z,7.60
2022-12-14T17:08:35.372Z,8.98
2022-12-14T17:11:02.336Z,8.55
2022-12-14T17:13:29.665Z,8.13
2022-12-14T17:16:00.213Z,9.05
2022-12-14T17:18:32.026Z,7.75
2022-12-14T17:20:59.777Z,8.55
2022-12-14T17:23:26.717Z,10.07
2022-12-14T17:25:53.556Z,8.93
2022-12-14T17:28:23.105Z,8.63
2022-12-14T17:30:51.191Z,9.18
2022-12-14T17:33:18.062Z,9.50
2022-12-14T17:35:44.743Z,8.85
2022-12-14T17:38:14.868Z,9.90
2022-12-14T17:40:42.394Z,9.60
2022-12-14T17:43:13.444Z,9.13
2022-12-14T17:45:40.518Z,9.90
2022-12-14T17:48:12.994Z,9.65
2022-12-14T17:53:13.516Z,8.45
2022-12-14T17:58:07.169Z,9.05
2022-12-14T18:00:52.506Z,9.73
2022-12-14T18:03:19.497Z,9.30
2022-12-14T18:05:51.515Z,9.38
2022-12-14T18:08:19.863Z,9.25
2022-12-14T18:10:48.737Z,9.15
2022-12-14T18:13:15.609Z,9.27
2022-12-14T18:15:49.766Z,9.07
2022-12-14T18:18:18.907Z,8.73
2022-12-14T18:20:49.766Z,8.75
2022-12-14T18:23:18.330Z,9.63
2022-12-14T18:25:48.537Z,9.10
2022-12-14T18:28:15.855Z,9.55
2022-12-14T18:30:49.659Z,9.25
2022-12-14T18:33:20.396Z,9.52
2022-12-14T18:35:49.067Z,8.13
2022-12-14T18:38:16.231Z,9.13
2022-12-14T18:40:51.044Z,7.97
2022-12-14T18:43:23.759Z,8.05
2022-12-14T18:45:53.097Z,7.82
2022-12-14T18:48:20.964Z,8.05
2022-12-14T18:50:49.658Z,8.73
2022-12-14T18:53:21.592Z,8.48
2022-12-14T18:55:49.459Z,8.33
2022-12-14T18:58:22.160Z,8.93
2022-12-14T19:00:54.622Z,8.30
2022-12-14T19:05:49.252Z,8.05
2022-12-14T19:08:15.925Z,8.80
2022-12-14T19:10:45.861Z,9.25
2022-12-14T19:13:20.340Z,9.18
2022-12-14T19:15:51.846Z,9.80
2022-12-14T19:18:18.927Z,9.73
2022-12-14T19:20:45.589Z,9.27
2022-12-14T19:23:17.603Z,9.00
2022-12-14T19:25:44.926Z,8.85
2022-12-14T19:28:30.706Z,8.98
2022-12-14T19:30:59.027Z,8.85
2022-12-14T19:33:26.855Z,9.45
2022-12-14T19:35:53.813Z,10.02
2022-12-14T19:38:20.593Z,10.05
2022-12-14T19:40:59.830Z,9.40
2022-12-14T19:43:26.957Z,10.32
2022-12-14T19:45:53.654Z,11.07
2022-12-14T19:48:20.529Z,10.48
2022-12-14T19:50:49.391Z,10.23
2022-12-14T19:53:21.621Z,10.40
2022-12-14T19:55:52.598Z,10.45
2022-12-14T19:58:22.034Z,10.07
2022-12-14T20:00:50.121Z,10.07
2022-12-14T20:03:17.629Z,9.43
2022-12-14T20:05:58.769Z,9.63
2022-12-14T20:08:27.869Z,9.75
2022-12-14T20:10:55.241Z,9.27
2022-12-14T20:13:23.418Z,9.63
2022-12-14T20:15:59.817Z,9.52
2022-12-14T20:18:27.200Z,9.20
2022-12-14T20:21:01.781Z,9.65
2022-12-14T20:23:29.047Z,9.52
2022-12-14T20:26:01.139Z,9.35
2022-12-14T20:28:28.084Z,10.10
2022-12-14T20:30:54.822Z,9.50
2022-12-14T20:33:26.439Z,10.35
2022-12-14T20:35:56.671Z,11.23
2022-12-14T20:38:23.346Z,11.05
2022-12-14T20:40:50.258Z,10.77
2022-12-14T20:43:16.981Z,10.00
2022-12-14T20:45:46.703Z,10.05
2022-12-14T20:48:13.722Z,10.35
2022-12-14T20:50:42.630Z,10.23
2022-12-14T20:53:09.342Z,11.00
2022-12-14T20:55:36.225Z,10.63
2022-12-14T20:58:02.908Z,11.57
2022-12-14T21:00:29.741Z,11.90
2022-12-14T21:02:56.736Z,10.80
2022-12-14T21:05:23.623Z,12.38
2022-12-14T21:07:50.361Z,10.43
2022-12-14T21:10:17.133Z,11.20
2022-12-14T21:12:44.594Z,10.20
2022-12-14T21:15:11.316Z,10.70
2022-12-14T21:17:39.160Z,11.02
2022-12-14T21:20:06.347Z,10.88
2022-12-14T21:22:35.289Z,11.13
2022-12-14T21:25:04.186Z,10.52
2022-12-14T21:27:32.911Z,10.65
2022-12-14T21:30:03.397Z,10.15
2022-12-14T21:32:30.231Z,10.18
2022-12-14T21:34:57.054Z,10.35
2022-12-14T21:37:24.173Z,10.23
2022-12-14T21:39:54.317Z,10.20
2022-12-14T21:42:24.046Z,10.13
2022-12-14T21:44:52.862Z,11.35
2022-12-14T21:47:26.894Z,11.15
2022-12-14T21:49:54.890Z,11.20
2022-12-14T21:52:30.497Z,10.20
2022-12-14T21:54:59.257Z,10.63
2022-12-14T21:57:49.655Z,11.07
2022-12-14T22:00:18.220Z,10.48
2022-12-14T22:02:45.008Z,11.07
2022-12-14T22:05:11.849Z,12.32
2022-12-14T22:07:38.629Z,12.23
2022-12-14T22:10:05.855Z,11.05
2022-12-14T22:12:33.113Z,11.77
2022-12-14T22:15:00.378Z,11.93
2022-12-14T22:17:27.115Z,12.77
2022-12-14T22:19:55.190Z,12.70
2022-12-14T22:22:22.532Z,11.10
2022-12-14T22:24:51.287Z,11.45
2022-12-14T22:27:19.203Z,11.40
2022-12-14T22:29:45.875Z,11.15
2022-12-14T22:32:13.528Z,11.48
2022-12-14T22:34:40.299Z,11.50
2022-12-14T22:37:06.972Z,11.32
2022-12-14T22:39:33.641Z,11.30
2022-12-14T22:42:00.310Z,10.68
2022-12-14T22:44:27.085Z,11.48
2022-12-14T22:46:53.767Z,11.35
2022-12-14T22:49:20.441Z,11.57
2022-12-14T22:51:47.610Z,11.20
2022-12-14T22:54:22.436Z,11.75
2022-12-14T22:57:00.346Z,10.45
2022-12-14T22:59:36.457Z,11.98
2022-12-14T23:02:03.912Z,10.48
2022-12-14T23:04:31.064Z,12.23
2022-12-14T23:06:57.733Z,11.57
2022-12-14T23:09:43.079Z,11.23
2022-12-14T23:12:28.447Z,11.13
2022-12-14T23:15:13.772Z,11.10
2022-12-14T23:17:59.171Z,10.25
2022-12-14T23:20:44.431Z,10.30
2022-12-14T23:23:30.170Z,10.75
2022-12-14T23:26:20.441Z,11.77
2022-12-14T23:29:05.730Z,10.80
2022-12-14T23:31:51.298Z,11.20
2022-12-14T23:34:36.686Z,10.40
2022-12-14T23:37:21.942Z,10.30
2022-12-14T23:40:07.457Z,10.05
2022-12-14T23:42:52.766Z,10.63
2022-12-14T23:45:38.648Z,9.93
2022-12-14T23:48:23.889Z,10.73
2022-12-14T23:51:09.252Z,10.68
2022-12-14T23:53:54.624Z,10.55
2022-12-14T23:56:40.243Z,10.80
2022-12-14T23:59:31.531Z,11.18
